Terminal Aerodrome Forecast
Issued by NWS Wilmington, NC

Home | Current Version | Previous Version | Text Only | Print | Product List | Glossary On
Versions: 1 2 3 4 5 6 7 8 9 10 11 12 13
697
FTUS42 KILM 212332
TAFMYR
TAF
KMYR 212332Z 2200/2224 21003KT P6SM FEW250
     FM221500 17008KT P6SM BKN025 BKN040
      TEMPO 2217/2221 BKN012
     FM222200 16009KT 2SM BR BKN003=

USA.gov is the U.S. government's official web portal to all federal, state and local government web resources and services.